Time;durP1;ratioP1;P1;durP2;ratioP2;P2;SDS_P1;SDS_P2;PMS_P1;PMS_P2;Temp;Humidity;BMP_temperature;BMP_pressure;BME280_temperature;BME280_humidity;BME280_pressure;Samples;Min_cycle;Max_cycle;Signal;HPM_P1;HPM_P2
2023/04/21 00:02:02;;;;;;;21.37;13.00;;;;;;;-141.97;79.01;47884.28;5054962;28;20307;-81
2023/04/21 00:04:27;;;;;;;21.80;12.77;;;;;;;-141.97;79.44;47642.09;5035641;28;20192;-81
2023/04/21 00:06:53;;;;;;;22.80;12.60;;;;;;;-141.97;80.27;47638.25;5053419;28;20164;-81
2023/04/21 00:09:20;;;;;;;24.40;13.33;;;;;;;-141.97;81.37;47780.47;5053596;28;20162;-81
2023/04/21 00:11:45;;;;;;;24.80;15.07;;;;;;;-141.97;81.37;47709.38;5052208;28;20157;-81
2023/04/21 00:14:11;;;;;;;23.73;14.07;;;;;;;-141.97;81.40;47776.63;5051945;28;20171;-81
2023/04/21 00:16:36;;;;;;;22.33;14.37;;;;;;;-141.97;82.16;47828.53;5053062;28;20169;-80
2023/04/21 00:19:05;;;;;;;23.10;14.07;;;;;;;-141.97;82.63;47755.50;5052140;28;20610;-81
2023/04/21 00:21:32;;;;;;;21.67;14.70;;;;;;;-141.97;82.93;47653.63;5052556;28;20712;-82
2023/04/21 00:23:59;;;;;;;25.87;15.03;;;;;;;-141.97;83.30;47561.38;5052411;28;20223;-81
2023/04/21 00:26:25;;;;;;;24.60;14.60;;;;;;;-141.97;83.28;47822.78;5051126;28;20633;-81
2023/04/21 00:28:50;;;;;;;21.17;14.03;;;;;;;-141.97;83.33;47866.97;5052107;28;20165;-81
2023/04/21 00:31:16;;;;;;;26.60;14.77;;;;;;;-141.97;83.88;47830.47;5052387;28;20180;-81
2023/04/21 00:33:47;;;;;;;23.43;14.53;;;;;;;-141.97;84.49;47853.53;5052213;28;20184;-81
2023/04/21 00:36:12;;;;;;;26.17;14.97;;;;;;;-141.97;84.76;47736.28;5051660;28;20236;-81
2023/04/21 00:38:41;;;;;;;29.87;16.07;;;;;;;-141.97;85.04;47805.47;5051338;28;20544;-81
2023/04/21 00:41:06;;;;;;;31.70;17.17;;;;;;;-141.97;85.38;47861.22;5051985;28;20169;-81
2023/04/21 00:43:32;;;;;;;39.27;19.47;;;;;;;-141.97;85.33;47845.84;5051304;28;20295;-82
2023/04/21 00:46:00;;;;;;;40.43;21.50;;;;;;;-141.97;85.40;47828.53;5051701;28;20162;-82
2023/04/21 00:48:25;;;;;;;41.33;21.60;;;;;;;-141.97;85.53;47749.72;5035626;28;20184;-82
2023/04/21 00:50:51;;;;;;;48.73;24.87;;;;;;;-141.97;85.68;47588.28;5031534;28;20552;-81
2023/04/21 00:53:17;;;;;;;74.17;27.50;;;;;;;-141.97;85.45;47851.59;5031266;28;20627;-82
2023/04/21 00:55:42;;;;;;;28.50;16.30;;;;;;;-141.97;85.12;47849.69;5031544;28;20170;-82
2023/04/21 00:58:08;;;;;;;23.10;15.23;;;;;;;-141.97;85.34;47724.75;5031503;28;20199;-81
2023/04/21 01:00:33;;;;;;;23.67;14.87;;;;;;;-141.97;85.46;47857.38;5046518;28;20205;-82
2023/04/21 01:03:00;;;;;;;24.60;15.70;;;;;;;-141.97;86.39;47736.28;5051192;28;20244;-81
2023/04/21 01:05:26;;;;;;;38.13;15.77;;;;;;;-141.97;87.29;47619.03;5033286;28;20209;-81
2023/04/21 01:07:52;;;;;;;26.20;16.37;;;;;;;-141.97;87.87;47644.00;5032992;28;20638;-81
2023/04/21 01:10:17;;;;;;;30.03;16.57;;;;;;;-141.97;88.09;47657.47;5051242;28;20169;-81
2023/04/21 01:12:44;;;;;;;27.57;16.87;;;;;;;-141.97;88.02;47665.16;5051198;28;20166;-81
2023/04/21 01:15:19;;;;;;;25.70;15.83;;;;;;;-141.97;88.37;47626.72;5050949;28;20261;-81
2023/04/21 01:17:45;;;;;;;24.93;16.10;;;;;;;-141.97;88.64;47880.44;5051016;28;20185;-80
2023/04/21 01:20:12;;;;;;;26.93;16.37;;;;;;;-141.97;89.03;47726.66;5050997;28;20193;-81
2023/04/21 01:22:40;;;;;;;26.90;16.73;;;;;;;-141.97;88.88;47749.72;5050772;28;20683;-81
2023/04/21 01:25:08;;;;;;;30.67;17.10;;;;;;;-141.97;88.83;47730.50;5051193;28;20162;-81
2023/04/21 01:27:34;;;;;;;29.30;17.93;;;;;;;-141.97;89.08;47595.97;5050924;28;20531;-80
2023/04/21 01:29:59;;;;;;;26.50;16.73;;;;;;;-141.97;89.47;47638.25;5050802;28;20188;-81
2023/04/21 01:32:27;;;;;;;31.97;17.40;;;;;;;-141.97;89.58;47790.09;5051139;28;20248;-80
2023/04/21 01:34:54;;;;;;;29.27;17.67;;;;;;;-141.97;89.67;47649.78;5052488;28;20226;-81
2023/04/21 01:37:28;;;;;;;29.03;18.17;;;;;;;-141.97;90.15;47788.19;5054057;28;20224;-81
2023/04/21 01:39:55;;;;;;;30.07;17.10;;;;;;;-141.97;93.18;47619.03;5050894;28;20169;-81
2023/04/21 01:42:24;;;;;;;26.70;16.53;;;;;;;-141.97;93.69;47815.09;5051466;28;20231;-82
2023/04/21 01:44:50;;;;;;;33.60;18.00;;;;;;;-141.97;94.69;47874.69;5052081;28;20161;-81
2023/04/21 01:47:16;;;;;;;27.00;15.83;;;;;;;-141.97;96.20;47811.25;5049584;28;20169;-81
2023/04/21 01:49:42;;;;;;;30.70;16.07;;;;;;;-141.97;100.00;47711.28;5033693;28;20188;-80
2023/04/21 01:52:10;;;;;;;26.50;15.63;;;;;;;-141.97;100.00;47603.66;5051006;28;20165;-80
2023/04/21 01:54:42;;;;;;;28.10;16.47;;;;;;;-141.97;100.00;47692.06;5050919;28;20169;-80
2023/04/21 01:57:10;;;;;;;29.17;17.33;;;;;;;-141.97;100.00;47755.50;5050553;28;20204;-80
2023/04/21 01:59:36;;;;;;;29.73;16.77;;;;;;;-141.97;100.00;47832.38;5050810;28;20252;-80
2023/04/21 02:02:01;;;;;;;26.43;15.70;;;;;;;-141.97;100.00;47576.75;5050082;28;20206;-80
2023/04/21 02:04:27;;;;;;;28.00;15.60;;;;;;;-141.97;100.00;47615.19;5031798;28;20166;-80
2023/04/21 02:06:52;;;;;;;27.10;14.40;;;;;;;-141.97;100.00;47624.78;5032847;28;20181;-81
2023/04/21 02:09:18;;;;;;;24.37;14.37;;;;;;;-141.97;100.00;47842.00;5031054;28;20170;-81
2023/04/21 02:11:43;;;;;;;27.17;15.20;;;;;;;-141.97;100.00;47605.56;5030625;28;20574;-81
2023/04/21 02:14:09;;;;;;;23.33;14.57;;;;;;;-141.97;100.00;47795.88;5031099;28;20230;-80
2023/04/21 02:16:34;;;;;;;28.60;15.20;;;;;;;-141.97;100.00;47822.78;5030553;28;20170;-81
2023/04/21 02:19:00;;;;;;;25.13;14.00;;;;;;;-141.97;100.00;47817.00;5037353;28;20201;-80
2023/04/21 02:21:26;;;;;;;26.87;13.70;;;;;;;-141.97;100.00;47784.34;5051046;28;20656;-80
2023/04/21 02:23:52;;;;;;;25.70;13.93;;;;;;;-141.97;100.00;47832.38;5054228;28;20165;-79
2023/04/21 02:26:20;;;;;;;22.00;13.23;;;;;;;-141.97;100.00;47865.06;5053596;28;20502;-80
2023/04/21 02:28:49;;;;;;;21.80;13.37;;;;;;;-141.97;100.00;47890.06;5050836;28;20170;-80
2023/04/21 02:31:15;;;;;;;21.73;13.13;;;;;;;-141.97;100.00;47807.41;5050751;28;20189;-80
2023/04/21 02:33:43;;;;;;;23.30;12.83;;;;;;;-141.97;100.00;47711.28;5051175;28;20619;-80
2023/04/21 02:36:09;;;;;;;22.03;13.57;;;;;;;-141.97;100.00;47607.50;5050620;28;20308;-80
2023/04/21 02:38:35;;;;;;;21.70;12.70;;;;;;;-141.97;100.00;47765.09;5035732;28;20379;-80
2023/04/21 02:41:00;;;;;;;23.03;13.67;;;;;;;-141.97;100.00;47669.00;5055458;28;20528;-81
2023/04/21 02:43:29;;;;;;;23.67;13.97;;;;;;;-141.97;100.00;47878.53;5054146;28;20177;-80
2023/04/21 02:45:54;;;;;;;24.23;13.40;;;;;;;-141.97;100.00;47807.41;5054200;28;20157;-80
2023/04/21 02:48:21;;;;;;;21.27;13.17;;;;;;;-141.97;100.00;47843.91;5037371;28;20172;-80
2023/04/21 02:50:52;;;;;;;22.47;12.60;;;;;;;-141.97;100.00;47851.59;5053591;28;20185;-81
2023/04/21 02:53:21;;;;;;;20.13;12.20;;;;;;;-141.97;100.00;47780.47;5053594;28;20157;-81
2023/04/21 02:55:47;;;;;;;20.90;12.23;;;;;;;-141.97;100.00;47793.94;5055193;28;20161;-80
2023/04/21 02:58:13;;;;;;;20.60;12.27;;;;;;;-141.97;100.00;47717.06;5057537;28;20190;-81
2023/04/21 03:00:38;;;;;;;19.10;12.30;;;;;;;-141.97;100.00;47792.03;5054502;28;20550;-81
2023/04/21 03:03:04;;;;;;;25.60;13.60;;;;;;;-141.97;100.00;47818.94;5054132;28;20233;-81
2023/04/21 03:05:29;;;;;;;26.60;14.53;;;;;;;-141.97;100.00;47655.53;5047149;28;20174;-81
2023/04/21 03:07:55;;;;;;;27.60;17.80;;;;;;;-141.97;100.00;47619.03;5034536;28;20168;-81
2023/04/21 03:10:21;;;;;;;31.23;18.20;;;;;;;-141.97;100.00;47849.69;5034244;28;20162;-81
2023/04/21 03:12:46;;;;;;;29.87;18.30;;;;;;;-141.97;100.00;47861.22;5033504;28;20256;-81
2023/04/21 03:15:13;;;;;;;43.17;26.47;;;;;;;-141.97;100.00;47792.03;5033783;28;20158;-80
2023/04/21 03:17:39;;;;;;;33.87;21.33;;;;;;;-141.97;100.00;47840.06;5033487;28;20565;-82
2023/04/21 03:20:07;;;;;;;35.53;21.03;;;;;;;-141.97;100.00;47792.03;5031053;28;20234;-81
2023/04/21 03:22:37;;;;;;;31.47;18.83;;;;;;;-141.97;100.00;47745.88;5053176;28;20185;-81
2023/04/21 03:25:06;;;;;;;31.70;19.47;;;;;;;-141.97;100.00;47809.31;5043583;28;20173;-81
2023/04/21 03:27:32;;;;;;;31.10;18.80;;;;;;;-141.97;100.00;47799.72;5018486;28;20654;-81
2023/04/21 03:29:58;;;;;;;28.10;17.30;;;;;;;-141.97;100.00;47811.25;5033525;28;20162;-81
2023/04/21 03:32:24;;;;;;;30.37;18.30;;;;;;;-141.97;100.00;47811.25;5032980;28;20177;-81
2023/04/21 03:34:50;;;;;;;28.63;17.57;;;;;;;-141.97;100.00;47855.44;5033389;28;20184;-81
2023/04/21 03:37:15;;;;;;;30.37;17.10;;;;;;;-141.97;100.00;47888.13;5015349;28;20226;-82
2023/04/21 03:39:41;;;;;;;31.30;17.17;;;;;;;-141.97;100.00;47588.28;5032828;28;20166;-81
2023/04/21 03:42:06;;;;;;;28.80;16.80;;;;;;;-141.97;100.00;47792.03;5033599;28;20166;-81
2023/04/21 03:44:32;;;;;;;39.57;22.33;;;;;;;-141.97;100.00;47694.00;5039762;28;20173;-81
2023/04/21 03:47:07;;;;;;;31.53;17.87;;;;;;;-141.97;100.00;47599.81;5052915;28;20177;-82
2023/04/21 03:49:35;;;;;;;29.50;17.03;;;;;;;-141.97;100.00;47718.97;5051905;28;20180;-82
2023/04/21 03:52:01;;;;;;;28.67;16.83;;;;;;;-141.97;100.00;47620.94;5052790;28;20189;-81
2023/04/21 03:54:27;;;;;;;29.90;17.03;;;;;;;-141.97;100.00;47732.44;5052758;28;20253;-82
2023/04/21 03:56:53;;;;;;;30.13;16.87;;;;;;;-141.97;100.00;47799.72;5052714;28;20236;-80
2023/04/21 03:59:21;;;;;;;26.83;15.27;;;;;;;-141.97;100.00;47711.28;5052600;28;20165;-80
2023/04/21 04:01:46;;;;;;;29.47;15.70;;;;;;;-141.97;100.00;47890.06;5052721;28;20611;-80
2023/04/21 04:04:12;;;;;;;28.33;16.23;;;;;;;-141.97;100.00;47834.31;5052621;28;20161;-80
2023/04/21 04:06:37;;;;;;;27.00;15.20;;;;;;;-141.97;100.00;47694.00;5053192;28;20598;-81
2023/04/21 04:09:03;;;;;;;29.23;16.40;;;;;;;-141.97;100.00;47770.88;5053113;28;20167;-80
2023/04/21 04:11:31;;;;;;;34.73;17.00;;;;;;;-141.97;100.00;47692.06;5052011;28;20196;-81
2023/04/21 04:13:57;;;;;;;27.37;16.27;;;;;;;-141.97;100.00;47767.03;5051840;28;20177;-81
2023/04/21 04:16:22;;;;;;;29.03;16.97;;;;;;;-141.97;100.00;47891.97;5052750;28;20618;-80
2023/04/21 04:18:51;;;;;;;31.83;17.97;;;;;;;-141.97;100.00;47765.09;5052685;28;20251;-80
2023/04/21 04:21:16;;;;;;;33.63;17.47;;;;;;;-141.97;100.00;47807.41;5034293;28;20242;-81
2023/04/21 04:23:58;;;;;;;31.73;16.80;;;;;;;-141.97;100.00;47772.78;5051851;28;20630;-83
2023/04/21 04:26:24;;;;;;;33.73;17.47;;;;;;;-141.97;100.00;47799.72;5033677;28;20261;-81
2023/04/21 04:29:01;;;;;;;29.83;17.07;;;;;;;-141.97;100.00;47853.53;5052230;28;20189;-81
2023/04/21 04:31:37;;;;;;;28.73;16.83;;;;;;;-141.97;100.00;47916.97;5052154;28;20220;-82
2023/04/21 04:34:06;;;;;;;30.77;16.57;;;;;;;-141.97;100.00;47861.22;5050819;28;20169;-82
2023/04/21 04:39:30;;;;;;;26.40;14.97;;;;;;;-141.97;100.00;47788.19;5031791;28;20232;-82
2023/04/21 04:42:14;;;;;;;26.97;15.47;;;;;;;-141.97;100.00;47803.56;5031586;28;20244;-82
2023/04/21 04:44:40;;;;;;;35.50;22.17;;;;;;;-141.97;100.00;47826.63;5047027;28;20174;-81
2023/04/21 04:47:06;;;;;;;50.60;30.87;;;;;;;-141.97;100.00;47784.34;5033026;28;20166;-81
2023/04/21 04:49:32;;;;;;;31.57;17.93;;;;;;;-141.97;100.00;47788.19;5032247;28;20161;-81
2023/04/21 04:52:07;;;;;;;28.53;17.10;;;;;;;-141.97;100.00;47792.03;5032140;28;20194;-80
2023/04/21 04:54:32;;;;;;;25.13;14.70;;;;;;;-141.97;100.00;47638.25;5031926;28;20214;-80
2023/04/21 04:56:58;;;;;;;26.10;16.20;;;;;;;-141.97;100.00;47830.47;5031635;28;20170;-82
2023/04/21 04:59:24;;;;;;;25.20;14.77;;;;;;;-141.97;100.00;47790.09;4996931;28;20634;-80
2023/04/21 05:01:49;;;;;;;27.30;15.23;;;;;;;-141.97;100.00;47765.09;5030989;28;20589;-80
2023/04/21 05:04:15;;;;;;;25.57;14.87;;;;;;;-141.97;100.00;47797.78;5031029;28;20682;-81
2023/04/21 05:06:41;;;;;;;27.67;15.27;;;;;;;-141.97;100.00;47765.09;5031434;28;20559;-82
2023/04/21 05:09:06;;;;;;;27.37;17.27;;;;;;;-141.97;100.00;47799.72;5032273;28;20178;-81
2023/04/21 05:11:32;;;;;;;24.23;15.50;;;;;;;-141.97;98.68;47809.31;5023622;28;20183;-81
2023/04/21 05:13:57;;;;;;;25.73;15.23;;;;;;;-141.97;97.46;47815.09;5012788;28;20171;-82
2023/04/21 05:16:23;;;;;;;24.43;15.20;;;;;;;-141.97;95.84;47745.88;5013154;28;20166;-82
2023/04/21 05:18:54;;;;;;;27.63;16.63;;;;;;;-141.97;93.70;47707.44;5014221;28;20734;-82
2023/04/21 05:21:27;;;;;;;29.23;18.43;;;;;;;-141.97;92.08;47765.09;5041443;28;20173;-82
2023/04/21 05:23:54;;;;;;;27.23;17.00;;;;;;;-141.97;90.54;47782.41;5032840;28;20169;-83
2023/04/21 05:26:19;;;;;;;23.77;15.10;;;;;;;-141.97;89.02;47768.94;5032155;28;20167;-83
2023/04/21 05:28:45;;;;;;;24.07;13.80;;;;;;;-141.97;86.76;47767.03;5030306;28;20255;-83
2023/04/21 05:31:10;;;;;;;21.60;14.17;;;;;;;-141.97;84.18;47795.88;5025430;28;20261;-83
2023/04/21 05:33:35;;;;;;;17.90;12.60;;;;;;;-141.97;79.38;47770.88;5011056;28;20562;-82
2023/04/21 05:36:01;;;;;;;18.60;10.97;;;;;;;-141.97;76.75;47761.25;5033825;28;20259;-82
2023/04/21 05:38:26;;;;;;;15.33;10.43;;;;;;;-141.97;74.58;47765.09;5050839;28;20197;-83
2023/04/21 05:40:55;;;;;;;18.47;11.07;;;;;;;-141.97;73.40;47780.47;5047576;28;20173;-83
2023/04/21 05:43:21;;;;;;;15.87;10.47;;;;;;;-141.97;72.50;47780.47;5030815;28;20633;-83
2023/04/21 05:45:46;;;;;;;15.97;11.60;;;;;;;-141.97;72.17;47776.63;5031106;28;20228;-83
2023/04/21 05:48:12;;;;;;;17.00;10.90;;;;;;;-141.97;71.53;47753.56;5053876;28;20606;-82
2023/04/21 05:50:37;;;;;;;16.70;10.97;;;;;;;-141.97;70.17;47686.31;5052037;28;20638;-83
2023/04/21 05:53:03;;;;;;;18.20;10.93;;;;;;;-141.97;70.50;47749.72;5030259;28;20166;-82
2023/04/21 05:55:28;;;;;;;16.90;9.77;;;;;;;-141.97;69.77;47749.72;5013494;28;20576;-84
2023/04/21 05:57:54;;;;;;;14.60;10.40;;;;;;;-141.97;69.54;47795.88;5013179;28;20185;-84
2023/04/21 06:00:19;;;;;;;18.80;10.13;;;;;;;-141.97;68.04;47742.03;5018752;28;20237;-81
2023/04/21 06:02:45;;;;;;;13.23;8.70;;;;;;;-141.97;67.51;47740.13;5019833;28;20178;-83
2023/04/21 06:05:10;;;;;;;13.43;9.03;;;;;;;-141.97;67.57;47834.31;5035758;28;20174;-82
2023/04/21 06:07:36;;;;;;;14.63;9.30;;;;;;;-141.97;66.64;47776.63;5044371;28;20684;-82
2023/04/21 06:10:02;;;;;;;12.37;8.90;;;;;;;-141.97;66.03;47745.88;5050111;28;20165;-82
2023/04/21 06:12:28;;;;;;;11.23;7.90;;;;;;;-141.97;65.73;47763.19;5042324;28;20174;-83
2023/04/21 06:14:56;;;;;;;13.47;9.60;;;;;;;-141.97;65.49;47730.50;5016654;28;20176;-82
2023/04/21 06:17:24;;;;;;;13.53;7.43;;;;;;;-141.97;63.86;47732.44;5034162;28;20186;-82
2023/04/21 06:19:52;;;;;;;12.20;8.40;;;;;;;-141.97;63.07;47728.59;5034667;28;20169;-81
2023/04/21 06:22:23;;;;;;;12.83;9.07;;;;;;;-141.97;62.75;47747.81;5033804;28;20178;-81
2023/04/21 06:24:49;;;;;;;9.63;7.57;;;;;;;-141.97;62.00;47699.75;5033917;28;20162;-82
2023/04/21 06:27:15;;;;;;;14.00;9.33;;;;;;;-141.97;61.94;47757.41;5021683;28;20627;-83
2023/04/21 06:29:41;;;;;;;15.77;9.30;;;;;;;-141.97;61.12;47749.72;5053318;28;20170;-83
2023/04/21 06:32:07;;;;;;;14.57;8.03;;;;;;;-141.97;60.43;47757.41;5030027;28;20189;-82
2023/04/21 06:34:33;;;;;;;12.10;7.97;;;;;;;-141.97;60.04;47767.03;5035106;28;20166;-82
2023/04/21 06:36:58;;;;;;;13.27;8.63;;;;;;;-141.97;60.39;47899.66;5032253;28;20228;-83
2023/04/21 06:39:24;;;;;;;12.47;8.70;;;;;;;-141.97;59.83;47815.09;5053644;28;20170;-82
2023/04/21 06:41:49;;;;;;;12.53;8.50;;;;;;;-141.97;59.26;47699.75;5050623;28;20169;-83
2023/04/21 06:44:15;;;;;;;13.70;8.73;;;;;;;-141.97;58.81;47745.88;5033001;28;20611;-81
2023/04/21 06:46:40;;;;;;;11.93;8.17;;;;;;;-141.97;58.38;47743.97;5032190;28;20193;-82
2023/04/21 06:49:09;;;;;;;13.07;7.43;;;;;;;-141.97;57.75;47715.13;5033293;28;20158;-82
2023/04/21 06:51:36;;;;;;;15.10;8.90;;;;;;;-141.97;59.16;47776.63;5014979;28;20181;-83
2023/04/21 06:54:02;;;;;;;13.90;10.40;;;;;;;-141.97;58.91;47745.88;5028112;28;20564;-82
2023/04/21 06:56:27;;;;;;;12.03;9.07;;;;;;;-141.97;56.22;47709.38;5054344;28;20178;-81
2023/04/21 06:58:53;;;;;;;16.73;11.10;;;;;;;-141.97;56.34;47724.75;5048632;28;20196;-80
2023/04/21 07:01:18;;;;;;;16.77;9.23;;;;;;;-141.97;55.83;47661.31;5054383;28;20233;-82
2023/04/21 07:03:44;;;;;;;18.80;10.43;;;;;;;-141.97;55.46;47715.13;5034949;28;20249;-81
2023/04/21 07:06:10;;;;;;;11.83;7.40;;;;;;;-141.97;54.80;47738.19;5032738;28;20170;-81
2023/04/21 07:08:35;;;;;;;13.97;9.53;;;;;;;-141.97;55.24;47684.38;5015274;28;20180;-82
2023/04/21 07:11:01;;;;;;;16.90;11.00;;;;;;;-141.97;55.16;47738.19;5016689;28;20182;-81
2023/04/21 07:13:26;;;;;;;16.03;9.43;;;;;;;-141.97;55.15;47765.09;5037298;28;20181;-82
2023/04/21 07:15:52;;;;;;;13.50;10.10;;;;;;;-141.97;54.81;47734.34;5035099;28;20645;-82
2023/04/21 07:18:17;;;;;;;18.07;10.63;;;;;;;-141.97;54.70;47715.13;5033773;28;20236;-82
2023/04/21 07:20:43;;;;;;;14.87;8.73;;;;;;;-141.97;54.60;47703.59;5051242;28;20165;-82
2023/04/21 07:23:08;;;;;;;18.43;11.23;;;;;;;-141.97;55.53;47859.28;5052883;28;20177;-81
2023/04/21 07:25:34;;;;;;;13.90;9.27;;;;;;;-141.97;54.45;47717.06;5053109;28;20219;-82
2023/04/21 07:28:01;;;;;;;13.17;9.20;;;;;;;-141.97;54.69;47738.19;5052245;28;20160;-82
2023/04/21 07:30:27;;;;;;;14.63;8.73;;;;;;;-141.97;53.75;47684.38;5051971;28;20681;-82
2023/04/21 07:32:53;;;;;;;15.47;9.07;;;;;;;-141.97;54.24;47745.88;5052232;28;20231;-82
2023/04/21 07:35:18;;;;;;;15.50;10.50;;;;;;;-141.97;53.59;47740.13;5034110;28;20166;-82
2023/04/21 07:37:44;;;;;;;14.90;9.27;;;;;;;-141.97;53.32;47624.78;5050457;28;20225;-82
2023/04/21 07:40:09;;;;;;;16.83;9.37;;;;;;;-141.97;53.49;47715.13;5034091;28;20177;-81
2023/04/21 07:42:35;;;;;;;13.67;9.53;;;;;;;-141.97;53.78;47705.53;5052051;28;20166;-81
2023/04/21 07:45:01;;;;;;;18.90;10.50;;;;;;;-141.97;52.89;47876.59;5051892;28;20205;-81
2023/04/21 07:47:27;;;;;;;14.90;10.20;;;;;;;-141.97;53.01;47680.53;5052009;28;20169;-82
2023/04/21 07:49:52;;;;;;;13.20;8.57;;;;;;;-141.97;51.87;47680.53;5048063;28;20257;-83
2023/04/21 07:52:18;;;;;;;16.53;10.47;;;;;;;-141.97;51.91;47818.94;5032409;28;20200;-83
2023/04/21 07:54:44;;;;;;;12.77;8.87;;;;;;;-141.97;51.45;47692.06;5031091;28;20549;-82
2023/04/21 07:57:10;;;;;;;14.53;10.80;;;;;;;-141.97;51.58;47711.28;5013604;28;20248;-81
2023/04/21 07:59:35;;;;;;;16.20;10.90;;;;;;;-141.97;52.05;47709.38;5022580;28;20173;-83
2023/04/21 08:02:01;;;;;;;14.43;9.57;;;;;;;-141.97;50.64;47707.44;5032239;28;20158;-81
2023/04/21 08:04:26;;;;;;;13.23;9.30;;;;;;;-141.97;50.52;47742.03;5015221;28;20232;-82
2023/04/21 08:06:52;;;;;;;13.07;9.10;;;;;;;-141.97;51.08;47720.91;5047554;28;20264;-79
2023/04/21 08:09:17;;;;;;;12.50;8.13;;;;;;;-141.97;48.72;47665.16;5043844;28;20276;-82
2023/04/21 08:11:43;;;;;;;14.60;9.50;;;;;;;-141.97;49.04;47736.28;5046752;28;20173;-81
2023/04/21 08:14:10;;;;;;;12.37;8.70;;;;;;;-141.97;48.92;47692.06;5051549;28;20169;-81
2023/04/21 08:16:36;;;;;;;13.87;9.87;;;;;;;-141.97;48.63;47722.81;5026960;28;20225;-83
2023/04/21 08:19:02;;;;;;;11.73;8.93;;;;;;;-141.97;49.57;47695.91;5044454;28;20280;-84
2023/04/21 08:21:27;;;;;;;12.60;9.40;;;;;;;-141.97;48.10;47718.97;5051634;28;20212;-84
2023/04/21 08:23:54;;;;;;;13.13;9.33;;;;;;;-141.97;47.32;47688.22;5042068;28;20178;-81
2023/04/21 08:26:22;;;;;;;13.17;8.63;;;;;;;-141.97;46.73;47659.38;5031238;28;20157;-83
2023/04/21 08:28:48;;;;;;;16.13;9.67;;;;;;;-141.97;47.05;47705.53;5026413;28;20192;-82
2023/04/21 08:31:15;;;;;;;19.57;12.50;;;;;;;-141.97;47.00;47676.69;5051975;28;20630;-83
2023/04/21 08:33:40;;;;;;;23.27;12.40;;;;;;;-141.97;46.15;47676.69;5033968;28;20180;-82
2023/04/21 08:36:06;;;;;;;18.27;10.77;;;;;;;-141.97;44.80;47645.94;5038792;28;20669;-84
2023/04/21 08:38:31;;;;;;;16.10;11.20;;;;;;;-141.97;44.93;47644.00;5041404;28;20243;-83
2023/04/21 08:40:58;;;;;;;20.00;12.53;;;;;;;-141.97;45.46;47682.47;5030700;28;20656;-81
2023/04/21 08:43:24;;;;;;;13.27;9.10;;;;;;;-141.97;44.88;47655.53;5031288;28;20166;-82
2023/04/21 08:45:53;;;;;;;14.10;10.23;;;;;;;-141.97;44.45;47670.91;5031277;28;20158;-83
2023/04/21 08:48:20;;;;;;;14.93;8.93;;;;;;;-141.97;43.73;47601.72;5030321;28;20256;-82
2023/04/21 08:50:47;;;;;;;13.33;8.47;;;;;;;-141.97;44.93;47638.25;5031331;28;20242;-82
2023/04/21 08:53:13;;;;;;;11.17;8.50;;;;;;;-141.97;44.23;47684.38;5046628;28;20487;-82
2023/04/21 08:55:41;;;;;;;14.70;9.37;;;;;;;-141.97;43.50;47665.16;5050516;28;20191;-83
2023/04/21 08:58:08;;;;;;;9.93;6.83;;;;;;;-141.97;44.19;47692.06;5045487;28;20197;-83
2023/04/21 09:00:36;;;;;;;16.67;10.57;;;;;;;-141.97;43.32;47690.16;5031278;28;20154;-82
2023/04/21 09:03:02;;;;;;;12.37;8.77;;;;;;;-141.97;43.42;47686.31;5030801;28;20166;-82
2023/04/21 09:05:32;;;;;;;9.63;7.80;;;;;;;-141.97;42.90;47669.00;5031608;28;20994;-83
2023/04/21 09:08:15;;;;;;;9.37;7.50;;;;;;;-141.97;41.84;47732.44;5030610;28;20249;-82
2023/04/21 09:10:45;;;;;;;34.00;23.40;;;;;;;-141.97;42.21;47657.47;5013979;28;20321;-82
2023/04/21 09:13:11;;;;;;;12.97;9.37;;;;;;;-141.97;40.79;47690.16;5041318;28;20236;-83
2023/04/21 09:15:51;;;;;;;11.60;8.63;;;;;;;-141.97;41.07;47715.13;5051501;28;20177;-82
2023/04/21 09:18:19;;;;;;;8.43;7.00;;;;;;;-141.97;40.37;47695.91;5044715;28;20217;-83
2023/04/21 09:20:47;;;;;;;10.97;7.53;;;;;;;-141.97;41.30;47672.84;5030836;28;20261;-83
2023/04/21 09:23:13;;;;;;;9.27;7.40;;;;;;;-141.97;41.58;47619.03;5030635;28;20236;-83
2023/04/21 09:25:40;;;;;;;7.60;6.47;;;;;;;-141.97;41.24;47676.69;5030602;28;20200;-82
2023/04/21 09:28:10;;;;;;;9.17;6.80;;;;;;;-141.97;41.79;47634.41;5030369;28;20169;-83
2023/04/21 09:30:37;;;;;;;8.33;6.77;;;;;;;-141.97;41.60;47670.91;5030133;28;20161;-82
2023/04/21 09:33:03;;;;;;;9.20;6.93;;;;;;;-141.97;41.13;47657.47;5033172;28;20212;-83
2023/04/21 09:35:32;;;;;;;10.33;6.80;;;;;;;-141.97;40.34;47620.94;5049704;28;20173;-83
2023/04/21 09:37:59;;;;;;;13.33;7.50;;;;;;;-141.97;40.43;47680.53;5058960;28;20235;-84
2023/04/21 09:40:25;;;;;;;10.57;8.03;;;;;;;-141.97;40.60;47715.13;5041472;28;20177;-82
2023/04/21 09:42:50;;;;;;;9.53;7.70;;;;;;;-141.97;39.82;47642.09;5031849;28;20167;-83
2023/04/21 09:45:16;;;;;;;11.23;7.87;;;;;;;-141.97;39.56;47636.31;5031141;28;20249;-83
2023/04/21 09:47:42;;;;;;;12.17;8.90;;;;;;;-141.97;39.25;47588.28;5041319;28;20193;-81
2023/04/21 09:50:10;;;;;;;15.00;7.70;;;;;;;-141.97;39.23;47747.81;5042096;28;20232;-83
2023/04/21 09:52:37;;;;;;;9.00;6.57;;;;;;;-141.97;38.69;47653.63;5036787;28;20722;-83
2023/04/21 09:55:10;;;;;;;11.27;7.40;;;;;;;-141.97;38.75;47586.34;5049688;28;20174;-83
2023/04/21 09:57:38;;;;;;;12.23;7.20;;;;;;;-141.97;38.47;47651.69;5053955;28;20280;-84
2023/04/21 10:00:08;;;;;;;9.30;6.67;;;;;;;-141.97;37.71;47584.44;5036648;28;20180;-82
2023/04/21 10:02:35;;;;;;;13.23;7.87;;;;;;;-141.97;38.78;47674.78;5053594;28;20645;-82
2023/04/21 10:05:05;;;;;;;11.50;7.77;;;;;;;-141.97;39.02;47647.84;5056199;28;20273;-82
2023/04/21 10:07:30;;;;;;;12.50;7.70;;;;;;;-141.97;38.15;47657.47;5062780;28;20192;-82
2023/04/21 10:09:58;;;;;;;11.97;7.43;;;;;;;-141.97;37.51;47653.63;5048703;28;20174;-80
2023/04/21 10:12:25;;;;;;;12.20;7.47;;;;;;;-141.97;37.63;47622.88;5046117;28;20193;-82
2023/04/21 10:14:55;;;;;;;8.00;6.37;;;;;;;-141.97;38.14;47688.22;5043531;28;20173;-81
2023/04/21 10:17:25;;;;;;;8.90;6.90;;;;;;;-141.97;38.29;47661.31;5026736;28;20618;-82
2023/04/21 10:19:57;;;;;;;10.20;7.33;;;;;;;-141.97;37.26;47647.84;5036956;28;20201;-81
2023/04/21 10:22:31;;;;;;;9.73;6.93;;;;;;;-141.97;37.54;47611.34;5033896;28;20162;-81
2023/04/21 10:24:58;;;;;;;10.17;6.13;;;;;;;-141.97;36.58;47622.88;5033427;28;20170;-81
2023/04/21 10:27:34;;;;;;;8.47;6.60;;;;;;;-141.97;36.83;47630.56;5033732;28;20249;-82
2023/04/21 10:30:00;;;;;;;9.47;6.70;;;;;;;-141.97;35.60;47517.16;5033527;28;20253;-83
2023/04/21 10:32:40;;;;;;;11.50;7.03;;;;;;;-141.97;36.15;47526.75;5033657;28;20162;-81
2023/04/21 10:35:16;;;;;;;10.20;6.97;;;;;;;-141.97;34.74;47632.47;5028133;28;20269;-83
2023/04/21 10:37:41;;;;;;;11.37;7.00;;;;;;;-141.97;34.56;47638.25;5053469;28;20225;-82
2023/04/21 10:40:27;;;;;;;10.60;7.20;;;;;;;-141.97;34.15;47657.47;5034704;28;20603;-82
2023/04/21 10:42:52;;;;;;;8.33;5.50;;;;;;;-141.97;35.17;47561.38;5033056;28;20162;-83
2023/04/21 10:45:18;;;;;;;9.13;5.90;;;;;;;-141.97;36.07;47622.88;5033195;28;20166;-82
2023/04/21 10:47:48;;;;;;;9.50;6.00;;;;;;;-141.97;35.25;47603.66;5033053;28;20163;-82
2023/04/21 10:50:27;;;;;;;7.53;5.90;;;;;;;-141.97;34.82;47676.69;5033983;28;20576;-82
2023/04/21 10:52:54;;;;;;;8.60;5.57;;;;;;;-141.97;34.77;47622.88;5036460;28;20197;-81
2023/04/21 10:55:21;;;;;;;7.93;5.30;;;;;;;-141.97;34.80;47651.69;5068083;28;20182;-81
2023/04/21 10:57:47;;;;;;;10.07;6.83;;;;;;;-141.97;35.07;47688.22;5053967;28;20204;-81
2023/04/21 11:00:18;;;;;;;6.73;4.43;;;;;;;-141.97;35.04;47634.41;5033851;28;20178;-81
2023/04/21 11:02:52;;;;;;;7.43;4.20;;;;;;;-141.97;35.32;47620.94;5032781;28;20166;-80
2023/04/21 11:05:18;;;;;;;6.00;5.00;;;;;;;-141.97;35.66;47569.06;5014797;28;20177;-81